Sect Las Villas, Puerto Rico
Current Conditions -  °F | °C
As of 6:50 AM on Friday 19 Dec 2014 (Local Time) from TJBQ Reporting Station
Broken Clouds Broken Clouds  
Wind Chill: 72°   Ceiling: 8000
Heat Index: 72°   Visibility: 10mi
Dew Point: 66°   Wind: 7mph
Humidity: 83%   Direction: 130°SE
Pressure: 29.98"   Gusts: NA
Location:  18.4409°N, 67.1508°W
Report Text: TJBQ 191050Z 13006KT 10SM BKN080 22/19 A2998 RMK RWY08 ATIS I
Loading
Personal Weather Stations






























Interactive Weather Map New forecast layout! Learn more

10-Day Weather Forecast

Advertisements
Track Severe Weather on mobile